sensor_id;sensor_type;location;lat;lon;timestamp;P1;durP1;ratioP1;P2;durP2;ratioP2
8584;SDS011;7180;52.742;11.420;2023-12-28T00:00:37;11.10;;;10.10;;
8584;SDS011;7180;52.742;11.420;2023-12-28T00:03:02;10.70;;;9.90;;
8584;SDS011;7180;52.742;11.420;2023-12-28T00:05:28;10.80;;;10.00;;
8584;SDS011;7180;52.742;11.420;2023-12-28T00:07:53;10.50;;;9.70;;
8584;SDS011;7180;52.742;11.420;2023-12-28T00:10:26;10.80;;;10.00;;
8584;SDS011;7180;52.742;11.420;2023-12-28T00:12:52;10.27;;;9.50;;
8584;SDS011;7180;52.742;11.420;2023-12-28T00:15:18;10.70;;;9.90;;
8584;SDS011;7180;52.742;11.420;2023-12-28T00:17:43;10.50;;;9.80;;
8584;SDS011;7180;52.742;11.420;2023-12-28T00:20:09;10.73;;;9.93;;
8584;SDS011;7180;52.742;11.420;2023-12-28T00:22:34;10.83;;;10.03;;
8584;SDS011;7180;52.742;11.420;2023-12-28T00:25:02;10.83;;;10.03;;
8584;SDS011;7180;52.742;11.420;2023-12-28T00:27:28;10.57;;;9.77;;
8584;SDS011;7180;52.742;11.420;2023-12-28T00:29:53;10.47;;;9.77;;
8584;SDS011;7180;52.742;11.420;2023-12-28T00:32:18;10.50;;;9.80;;
8584;SDS011;7180;52.742;11.420;2023-12-28T00:34:44;10.30;;;9.60;;
8584;SDS011;7180;52.742;11.420;2023-12-28T00:37:09;10.17;;;9.40;;
8584;SDS011;7180;52.742;11.420;2023-12-28T00:39:34;10.23;;;9.47;;
8584;SDS011;7180;52.742;11.420;2023-12-28T00:42:00;10.30;;;9.50;;
8584;SDS011;7180;52.742;11.420;2023-12-28T00:44:25;9.80;;;9.20;;
8584;SDS011;7180;52.742;11.420;2023-12-28T00:46:51;10.23;;;9.43;;
8584;SDS011;7180;52.742;11.420;2023-12-28T00:49:16;10.10;;;9.40;;
8584;SDS011;7180;52.742;11.420;2023-12-28T00:51:41;9.83;;;9.23;;
8584;SDS011;7180;52.742;11.420;2023-12-28T00:54:06;9.40;;;8.80;;
8584;SDS011;7180;52.742;11.420;2023-12-28T00:56:32;9.67;;;9.07;;
8584;SDS011;7180;52.742;11.420;2023-12-28T00:58:57;9.37;;;8.87;;
8584;SDS011;7180;52.742;11.420;2023-12-28T01:01:22;9.40;;;8.80;;
8584;SDS011;7180;52.742;11.420;2023-12-28T01:03:47;9.90;;;9.10;;
8584;SDS011;7180;52.742;11.420;2023-12-28T01:06:13;9.57;;;9.07;;
8584;SDS011;7180;52.742;11.420;2023-12-28T01:08:38;9.23;;;8.63;;
8584;SDS011;7180;52.742;11.420;2023-12-28T01:11:04;9.70;;;9.10;;
8584;SDS011;7180;52.742;11.420;2023-12-28T01:13:29;9.37;;;8.80;;
8584;SDS011;7180;52.742;11.420;2023-12-28T01:15:55;9.90;;;9.20;;
8584;SDS011;7180;52.742;11.420;2023-12-28T01:18:21;8.97;;;8.47;;
8584;SDS011;7180;52.742;11.420;2023-12-28T01:20:46;9.10;;;8.60;;
8584;SDS011;7180;52.742;11.420;2023-12-28T01:23:12;8.90;;;8.40;;
8584;SDS011;7180;52.742;11.420;2023-12-28T01:25:37;9.10;;;8.60;;
8584;SDS011;7180;52.742;11.420;2023-12-28T01:28:02;8.87;;;8.37;;
8584;SDS011;7180;52.742;11.420;2023-12-28T01:30:28;8.87;;;8.37;;
8584;SDS011;7180;52.742;11.420;2023-12-28T01:32:53;9.20;;;8.60;;
8584;SDS011;7180;52.742;11.420;2023-12-28T01:35:19;9.13;;;8.63;;
8584;SDS011;7180;52.742;11.420;2023-12-28T01:37:44;9.23;;;8.73;;
8584;SDS011;7180;52.742;11.420;2023-12-28T01:40:10;9.40;;;8.80;;
8584;SDS011;7180;52.742;11.420;2023-12-28T01:42:36;8.97;;;8.47;;
8584;SDS011;7180;52.742;11.420;2023-12-28T01:45:02;9.23;;;8.73;;
8584;SDS011;7180;52.742;11.420;2023-12-28T01:47:28;9.20;;;8.60;;
8584;SDS011;7180;52.742;11.420;2023-12-28T01:49:54;9.70;;;9.10;;
8584;SDS011;7180;52.742;11.420;2023-12-28T01:52:21;9.10;;;8.60;;
8584;SDS011;7180;52.742;11.420;2023-12-28T01:54:46;9.30;;;8.80;;
8584;SDS011;7180;52.742;11.420;2023-12-28T01:57:12;8.90;;;8.40;;
8584;SDS011;7180;52.742;11.420;2023-12-28T01:59:38;9.03;;;8.53;;
8584;SDS011;7180;52.742;11.420;2023-12-28T02:02:04;9.00;;;8.50;;
8584;SDS011;7180;52.742;11.420;2023-12-28T02:04:30;9.50;;;8.90;;
8584;SDS011;7180;52.742;11.420;2023-12-28T02:06:56;9.70;;;9.10;;
8584;SDS011;7180;52.742;11.420;2023-12-28T02:09:22;9.27;;;8.73;;
8584;SDS011;7180;52.742;11.420;2023-12-28T02:11:48;9.40;;;8.90;;
8584;SDS011;7180;52.742;11.420;2023-12-28T02:14:13;9.40;;;8.83;;
8584;SDS011;7180;52.742;11.420;2023-12-28T02:16:40;9.03;;;8.53;;
8584;SDS011;7180;52.742;11.420;2023-12-28T02:19:25;9.50;;;9.00;;
8584;SDS011;7180;52.742;11.420;2023-12-28T02:22:14;9.13;;;8.63;;
8584;SDS011;7180;52.742;11.420;2023-12-28T02:27:43;9.57;;;8.97;;
8584;SDS011;7180;52.742;11.420;2023-12-28T02:30:14;9.47;;;8.77;;
8584;SDS011;7180;52.742;11.420;2023-12-28T02:32:52;9.47;;;8.93;;
8584;SDS011;7180;52.742;11.420;2023-12-28T02:35:23;9.30;;;8.80;;
8584;SDS011;7180;52.742;11.420;2023-12-28T02:37:51;9.67;;;9.07;;
8584;SDS011;7180;52.742;11.420;2023-12-28T02:40:18;9.83;;;9.23;;
8584;SDS011;7180;52.742;11.420;2023-12-28T02:42:44;9.43;;;8.90;;
8584;SDS011;7180;52.742;11.420;2023-12-28T02:45:09;9.33;;;8.73;;
8584;SDS011;7180;52.742;11.420;2023-12-28T02:47:35;9.53;;;8.93;;
8584;SDS011;7180;52.742;11.420;2023-12-28T02:50:01;9.10;;;8.60;;
8584;SDS011;7180;52.742;11.420;2023-12-28T02:52:26;9.57;;;8.97;;
8584;SDS011;7180;52.742;11.420;2023-12-28T02:54:51;9.77;;;9.07;;
8584;SDS011;7180;52.742;11.420;2023-12-28T02:57:16;9.63;;;9.10;;
8584;SDS011;7180;52.742;11.420;2023-12-28T02:59:44;9.40;;;8.90;;
8584;SDS011;7180;52.742;11.420;2023-12-28T03:02:10;9.33;;;8.83;;
8584;SDS011;7180;52.742;11.420;2023-12-28T03:04:35;9.37;;;8.87;;
8584;SDS011;7180;52.742;11.420;2023-12-28T03:07:00;9.30;;;8.80;;
8584;SDS011;7180;52.742;11.420;2023-12-28T03:09:26;9.73;;;9.17;;
8584;SDS011;7180;52.742;11.420;2023-12-28T03:11:51;9.20;;;8.60;;
8584;SDS011;7180;52.742;11.420;2023-12-28T03:14:17;8.83;;;8.40;;
8584;SDS011;7180;52.742;11.420;2023-12-28T03:16:42;9.00;;;8.50;;
8584;SDS011;7180;52.742;11.420;2023-12-28T03:19:08;9.40;;;8.90;;
8584;SDS011;7180;52.742;11.420;2023-12-28T03:21:33;9.60;;;8.90;;
8584;SDS011;7180;52.742;11.420;2023-12-28T03:23:58;9.03;;;8.63;;
8584;SDS011;7180;52.742;11.420;2023-12-28T03:26:23;9.63;;;8.93;;
8584;SDS011;7180;52.742;11.420;2023-12-28T03:28:49;9.23;;;8.73;;
8584;SDS011;7180;52.742;11.420;2023-12-28T03:31:14;9.20;;;8.70;;
8584;SDS011;7180;52.742;11.420;2023-12-28T03:33:39;9.40;;;8.90;;
8584;SDS011;7180;52.742;11.420;2023-12-28T03:36:05;9.37;;;8.90;;
8584;SDS011;7180;52.742;11.420;2023-12-28T03:38:30;9.50;;;8.90;;
8584;SDS011;7180;52.742;11.420;2023-12-28T03:40:55;9.70;;;9.10;;
8584;SDS011;7180;52.742;11.420;2023-12-28T03:43:21;9.47;;;8.93;;
8584;SDS011;7180;52.742;11.420;2023-12-28T03:45:46;9.63;;;9.03;;
8584;SDS011;7180;52.742;11.420;2023-12-28T03:48:11;9.23;;;8.73;;
8584;SDS011;7180;52.742;11.420;2023-12-28T03:50:37;9.30;;;8.70;;
8584;SDS011;7180;52.742;11.420;2023-12-28T03:53:02;9.23;;;8.73;;
8584;SDS011;7180;52.742;11.420;2023-12-28T03:55:27;9.47;;;8.93;;
8584;SDS011;7180;52.742;11.420;2023-12-28T03:57:53;9.60;;;9.00;;
8584;SDS011;7180;52.742;11.420;2023-12-28T04:00:18;9.40;;;8.90;;
8584;SDS011;7180;52.742;11.420;2023-12-28T04:02:43;9.03;;;8.53;;
8584;SDS011;7180;52.742;11.420;2023-12-28T04:05:08;9.33;;;8.80;;
8584;SDS011;7180;52.742;11.420;2023-12-28T04:07:34;9.47;;;8.90;;
8584;SDS011;7180;52.742;11.420;2023-12-28T04:09:59;9.10;;;8.60;;
8584;SDS011;7180;52.742;11.420;2023-12-28T04:12:24;9.43;;;8.87;;
8584;SDS011;7180;52.742;11.420;2023-12-28T04:14:50;9.30;;;8.80;;
8584;SDS011;7180;52.742;11.420;2023-12-28T04:17:15;9.40;;;8.90;;
8584;SDS011;7180;52.742;11.420;2023-12-28T04:19:40;9.47;;;8.87;;
8584;SDS011;7180;52.742;11.420;2023-12-28T04:22:05;9.43;;;8.83;;
8584;SDS011;7180;52.742;11.420;2023-12-28T04:24:31;9.27;;;8.77;;
8584;SDS011;7180;52.742;11.420;2023-12-28T04:26:56;9.50;;;9.00;;
8584;SDS011;7180;52.742;11.420;2023-12-28T04:29:21;9.33;;;8.83;;
8584;SDS011;7180;52.742;11.420;2023-12-28T04:31:46;9.37;;;8.80;;
8584;SDS011;7180;52.742;11.420;2023-12-28T04:34:12;9.33;;;8.73;;
8584;SDS011;7180;52.742;11.420;2023-12-28T04:36:43;9.33;;;8.70;;
8584;SDS011;7180;52.742;11.420;2023-12-28T04:39:10;8.90;;;8.40;;
8584;SDS011;7180;52.742;11.420;2023-12-28T04:41:35;8.77;;;8.27;;
8584;SDS011;7180;52.742;11.420;2023-12-28T04:44:00;8.50;;;8.00;;
8584;SDS011;7180;52.742;11.420;2023-12-28T04:46:26;9.37;;;8.87;;
8584;SDS011;7180;52.742;11.420;2023-12-28T04:48:51;9.00;;;8.50;;
8584;SDS011;7180;52.742;11.420;2023-12-28T04:51:16;9.27;;;8.67;;
8584;SDS011;7180;52.742;11.420;2023-12-28T04:53:42;9.20;;;8.70;;
8584;SDS011;7180;52.742;11.420;2023-12-28T04:56:07;9.07;;;8.57;;
8584;SDS011;7180;52.742;11.420;2023-12-28T04:58:32;9.70;;;9.00;;
8584;SDS011;7180;52.742;11.420;2023-12-28T05:00:57;9.60;;;9.00;;
8584;SDS011;7180;52.742;11.420;2023-12-28T05:03:23;9.30;;;8.80;;
8584;SDS011;7180;52.742;11.420;2023-12-28T05:05:48;9.37;;;8.50;;
8584;SDS011;7180;52.742;11.420;2023-12-28T05:08:13;9.30;;;8.80;;
8584;SDS011;7180;52.742;11.420;2023-12-28T05:10:38;8.63;;;8.20;;
8584;SDS011;7180;52.742;11.420;2023-12-28T05:13:04;9.07;;;8.57;;
8584;SDS011;7180;52.742;11.420;2023-12-28T05:15:29;8.80;;;8.30;;
8584;SDS011;7180;52.742;11.420;2023-12-28T05:17:54;9.00;;;8.43;;
8584;SDS011;7180;52.742;11.420;2023-12-28T05:20:19;9.03;;;8.53;;
8584;SDS011;7180;52.742;11.420;2023-12-28T05:22:45;8.90;;;8.40;;
8584;SDS011;7180;52.742;11.420;2023-12-28T05:25:10;9.40;;;8.80;;
8584;SDS011;7180;52.742;11.420;2023-12-28T05:27:35;9.10;;;8.50;;
8584;SDS011;7180;52.742;11.420;2023-12-28T05:30:01;8.90;;;8.30;;
8584;SDS011;7180;52.742;11.420;2023-12-28T05:32:26;9.13;;;8.60;;
8584;SDS011;7180;52.742;11.420;2023-12-28T05:34:51;9.30;;;8.80;;
8584;SDS011;7180;52.742;11.420;2023-12-28T05:37:16;9.03;;;8.53;;
8584;SDS011;7180;52.742;11.420;2023-12-28T05:39:42;9.27;;;8.67;;
8584;SDS011;7180;52.742;11.420;2023-12-28T05:42:07;9.77;;;9.17;;
8584;SDS011;7180;52.742;11.420;2023-12-28T05:44:33;9.30;;;8.80;;
8584;SDS011;7180;52.742;11.420;2023-12-28T05:46:58;10.07;;;9.37;;
8584;SDS011;7180;52.742;11.420;2023-12-28T05:49:24;9.80;;;9.20;;
8584;SDS011;7180;52.742;11.420;2023-12-28T05:51:50;9.93;;;9.23;;
8584;SDS011;7180;52.742;11.420;2023-12-28T05:54:15;9.17;;;8.67;;
8584;SDS011;7180;52.742;11.420;2023-12-28T05:56:40;9.30;;;8.80;;
8584;SDS011;7180;52.742;11.420;2023-12-28T05:59:05;9.90;;;9.23;;
8584;SDS011;7180;52.742;11.420;2023-12-28T06:01:31;9.73;;;9.13;;
8584;SDS011;7180;52.742;11.420;2023-12-28T06:03:57;9.83;;;9.03;;
8584;SDS011;7180;52.742;11.420;2023-12-28T06:06:22;9.63;;;9.03;;
8584;SDS011;7180;52.742;11.420;2023-12-28T06:08:48;9.60;;;9.00;;
8584;SDS011;7180;52.742;11.420;2023-12-28T06:11:13;9.30;;;8.70;;
8584;SDS011;7180;52.742;11.420;2023-12-28T06:13:38;9.57;;;8.97;;
8584;SDS011;7180;52.742;11.420;2023-12-28T06:16:03;9.33;;;8.63;;
8584;SDS011;7180;52.742;11.420;2023-12-28T06:18:29;9.50;;;8.90;;
8584;SDS011;7180;52.742;11.420;2023-12-28T06:20:54;9.23;;;8.70;;
8584;SDS011;7180;52.742;11.420;2023-12-28T06:23:20;9.30;;;8.70;;
8584;SDS011;7180;52.742;11.420;2023-12-28T06:25:45;9.47;;;8.87;;
8584;SDS011;7180;52.742;11.420;2023-12-28T06:28:10;9.40;;;8.90;;
8584;SDS011;7180;52.742;11.420;2023-12-28T06:30:36;9.27;;;8.73;;
8584;SDS011;7180;52.742;11.420;2023-12-28T06:33:01;9.20;;;8.60;;
8584;SDS011;7180;52.742;11.420;2023-12-28T06:35:26;9.10;;;8.60;;
8584;SDS011;7180;52.742;11.420;2023-12-28T06:37:52;9.40;;;8.90;;
8584;SDS011;7180;52.742;11.420;2023-12-28T06:40:17;9.67;;;9.07;;
8584;SDS011;7180;52.742;11.420;2023-12-28T06:42:42;9.50;;;8.90;;
8584;SDS011;7180;52.742;11.420;2023-12-28T06:45:08;9.40;;;8.80;;
8584;SDS011;7180;52.742;11.420;2023-12-28T06:47:34;9.70;;;9.00;;
8584;SDS011;7180;52.742;11.420;2023-12-28T06:49:59;9.90;;;9.23;;
8584;SDS011;7180;52.742;11.420;2023-12-28T06:52:25;9.77;;;9.07;;
8584;SDS011;7180;52.742;11.420;2023-12-28T06:54:50;10.00;;;9.20;;
8584;SDS011;7180;52.742;11.420;2023-12-28T06:57:16;9.67;;;8.97;;
8584;SDS011;7180;52.742;11.420;2023-12-28T06:59:42;10.20;;;9.50;;
8584;SDS011;7180;52.742;11.420;2023-12-28T07:02:07;10.43;;;9.63;;
8584;SDS011;7180;52.742;11.420;2023-12-28T07:04:32;9.40;;;8.80;;
8584;SDS011;7180;52.742;11.420;2023-12-28T07:06:58;9.73;;;9.03;;
8584;SDS011;7180;52.742;11.420;2023-12-28T07:09:23;10.03;;;9.33;;
8584;SDS011;7180;52.742;11.420;2023-12-28T07:11:48;9.67;;;8.97;;
8584;SDS011;7180;52.742;11.420;2023-12-28T07:14:14;9.47;;;8.93;;
8584;SDS011;7180;52.742;11.420;2023-12-28T07:16:39;10.00;;;9.30;;
8584;SDS011;7180;52.742;11.420;2023-12-28T07:19:04;10.07;;;9.37;;
8584;SDS011;7180;52.742;11.420;2023-12-28T07:21:29;9.90;;;9.30;;
8584;SDS011;7180;52.742;11.420;2023-12-28T07:23:55;10.20;;;9.50;;
8584;SDS011;7180;52.742;11.420;2023-12-28T07:26:20;10.23;;;9.57;;
8584;SDS011;7180;52.742;11.420;2023-12-28T07:28:45;9.40;;;8.80;;
8584;SDS011;7180;52.742;11.420;2023-12-28T07:31:22;9.93;;;9.33;;
8584;SDS011;7180;52.742;11.420;2023-12-28T07:33:51;10.43;;;9.53;;
8584;SDS011;7180;52.742;11.420;2023-12-28T07:36:16;10.53;;;9.63;;
8584;SDS011;7180;52.742;11.420;2023-12-28T07:38:42;9.40;;;8.80;;
8584;SDS011;7180;52.742;11.420;2023-12-28T07:41:08;9.57;;;8.93;;
8584;SDS011;7180;52.742;11.420;2023-12-28T07:43:33;9.77;;;9.17;;
8584;SDS011;7180;52.742;11.420;2023-12-28T07:45:59;10.23;;;9.57;;
8584;SDS011;7180;52.742;11.420;2023-12-28T07:48:24;9.80;;;9.17;;
8584;SDS011;7180;52.742;11.420;2023-12-28T07:50:49;9.20;;;8.67;;
8584;SDS011;7180;52.742;11.420;2023-12-28T07:53:16;9.53;;;8.93;;
8584;SDS011;7180;52.742;11.420;2023-12-28T07:55:42;9.60;;;9.00;;
8584;SDS011;7180;52.742;11.420;2023-12-28T07:58:07;9.63;;;8.93;;
8584;SDS011;7180;52.742;11.420;2023-12-28T08:00:32;9.90;;;9.17;;
8584;SDS011;7180;52.742;11.420;2023-12-28T08:02:58;10.03;;;9.20;;
8584;SDS011;7180;52.742;11.420;2023-12-28T08:05:23;9.20;;;8.70;;
8584;SDS011;7180;52.742;11.420;2023-12-28T08:07:49;10.20;;;9.40;;
8584;SDS011;7180;52.742;11.420;2023-12-28T08:10:14;9.37;;;8.77;;
8584;SDS011;7180;52.742;11.420;2023-12-28T08:12:39;9.40;;;8.80;;
8584;SDS011;7180;52.742;11.420;2023-12-28T08:15:05;9.60;;;8.90;;
8584;SDS011;7180;52.742;11.420;2023-12-28T08:17:30;11.10;;;10.20;;
8584;SDS011;7180;52.742;11.420;2023-12-28T08:19:56;10.60;;;9.90;;
8584;SDS011;7180;52.742;11.420;2023-12-28T08:22:21;10.30;;;9.50;;
8584;SDS011;7180;52.742;11.420;2023-12-28T08:24:46;10.63;;;9.80;;
8584;SDS011;7180;52.742;11.420;2023-12-28T08:27:12;10.63;;;9.83;;
8584;SDS011;7180;52.742;11.420;2023-12-28T08:29:37;10.17;;;9.47;;
8584;SDS011;7180;52.742;11.420;2023-12-28T08:32:02;10.13;;;9.43;;
8584;SDS011;7180;52.742;11.420;2023-12-28T08:34:28;10.60;;;9.80;;
8584;SDS011;7180;52.742;11.420;2023-12-28T08:36:53;10.87;;;10.17;;
8584;SDS011;7180;52.742;11.420;2023-12-28T08:39:18;10.10;;;9.30;;
8584;SDS011;7180;52.742;11.420;2023-12-28T08:41:44;10.10;;;9.40;;
8584;SDS011;7180;52.742;11.420;2023-12-28T08:44:09;10.37;;;9.60;;
8584;SDS011;7180;52.742;11.420;2023-12-28T08:46:34;9.60;;;9.00;;
8584;SDS011;7180;52.742;11.420;2023-12-28T08:49:00;10.37;;;9.70;;
8584;SDS011;7180;52.742;11.420;2023-12-28T08:51:25;9.90;;;9.33;;
8584;SDS011;7180;52.742;11.420;2023-12-28T08:53:50;11.00;;;10.20;;
8584;SDS011;7180;52.742;11.420;2023-12-28T08:56:16;11.77;;;10.87;;
8584;SDS011;7180;52.742;11.420;2023-12-28T08:58:43;13.40;;;12.10;;
8584;SDS011;7180;52.742;11.420;2023-12-28T09:01:19;18.43;;;14.97;;
8584;SDS011;7180;52.742;11.420;2023-12-28T09:03:47;28.50;;;20.33;;
8584;SDS011;7180;52.742;11.420;2023-12-28T09:06:16;13.47;;;12.17;;
8584;SDS011;7180;52.742;11.420;2023-12-28T09:08:42;9.73;;;9.10;;
8584;SDS011;7180;52.742;11.420;2023-12-28T09:11:11;13.23;;;12.13;;
8584;SDS011;7180;52.742;11.420;2023-12-28T09:13:37;11.53;;;10.63;;
8584;SDS011;7180;52.742;11.420;2023-12-28T09:16:03;12.83;;;11.73;;
8584;SDS011;7180;52.742;11.420;2023-12-28T09:18:29;9.90;;;9.30;;
8584;SDS011;7180;52.742;11.420;2023-12-28T09:20:54;15.77;;;14.47;;
8584;SDS011;7180;52.742;11.420;2023-12-28T09:23:20;12.60;;;11.60;;
8584;SDS011;7180;52.742;11.420;2023-12-28T09:25:45;14.43;;;13.17;;
8584;SDS011;7180;52.742;11.420;2023-12-28T09:28:10;12.83;;;11.83;;
8584;SDS011;7180;52.742;11.420;2023-12-28T09:30:36;11.90;;;11.10;;
8584;SDS011;7180;52.742;11.420;2023-12-28T09:33:01;10.03;;;9.43;;
8584;SDS011;7180;52.742;11.420;2023-12-28T09:35:26;20.90;;;16.17;;
8584;SDS011;7180;52.742;11.420;2023-12-28T09:37:52;37.60;;;23.93;;
8584;SDS011;7180;52.742;11.420;2023-12-28T09:40:17;89.57;;;42.20;;
8584;SDS011;7180;52.742;11.420;2023-12-28T09:42:51;24.47;;;18.70;;
8584;SDS011;7180;52.742;11.420;2023-12-28T09:45:24;15.90;;;14.13;;
8584;SDS011;7180;52.742;11.420;2023-12-28T09:47:50;11.17;;;10.37;;
8584;SDS011;7180;52.742;11.420;2023-12-28T09:50:16;9.97;;;9.27;;
8584;SDS011;7180;52.742;11.420;2023-12-28T09:52:43;10.03;;;9.43;;
8584;SDS011;7180;52.742;11.420;2023-12-28T09:55:08;9.53;;;8.93;;
8584;SDS011;7180;52.742;11.420;2023-12-28T09:57:34;10.43;;;9.37;;
8584;SDS011;7180;52.742;11.420;2023-12-28T10:00:00;10.47;;;9.43;;
8584;SDS011;7180;52.742;11.420;2023-12-28T10:02:26;9.50;;;8.87;;
8584;SDS011;7180;52.742;11.420;2023-12-28T10:04:52;10.20;;;9.30;;
8584;SDS011;7180;52.742;11.420;2023-12-28T10:07:17;10.17;;;9.40;;
8584;SDS011;7180;52.742;11.420;2023-12-28T10:09:43;10.20;;;9.40;;
8584;SDS011;7180;52.742;11.420;2023-12-28T10:12:08;10.50;;;9.80;;
8584;SDS011;7180;52.742;11.420;2023-12-28T10:14:34;11.63;;;10.77;;
8584;SDS011;7180;52.742;11.420;2023-12-28T10:17:00;12.77;;;11.63;;
8584;SDS011;7180;52.742;11.420;2023-12-28T10:19:27;10.13;;;9.53;;
8584;SDS011;7180;52.742;11.420;2023-12-28T10:21:52;10.80;;;10.13;;
8584;SDS011;7180;52.742;11.420;2023-12-28T10:24:17;14.23;;;12.80;;
8584;SDS011;7180;52.742;11.420;2023-12-28T10:26:43;11.90;;;10.90;;
8584;SDS011;7180;52.742;11.420;2023-12-28T10:29:08;10.77;;;9.97;;
8584;SDS011;7180;52.742;11.420;2023-12-28T10:31:33;11.00;;;10.03;;
8584;SDS011;7180;52.742;11.420;2023-12-28T10:33:59;13.37;;;12.10;;
8584;SDS011;7180;52.742;11.420;2023-12-28T10:36:27;13.63;;;12.13;;
8584;SDS011;7180;52.742;11.420;2023-12-28T10:38:53;11.33;;;10.43;;
8584;SDS011;7180;52.742;11.420;2023-12-28T10:41:19;10.63;;;9.77;;
8584;SDS011;7180;52.742;11.420;2023-12-28T10:43:46;14.07;;;12.53;;
8584;SDS011;7180;52.742;11.420;2023-12-28T10:46:22;11.93;;;10.90;;
8584;SDS011;7180;52.742;11.420;2023-12-28T10:48:52;10.87;;;10.10;;
8584;SDS011;7180;52.742;11.420;2023-12-28T10:51:23;10.00;;;9.30;;
8584;SDS011;7180;52.742;11.420;2023-12-28T10:53:54;10.33;;;9.63;;
8584;SDS011;7180;52.742;11.420;2023-12-28T10:56:35;11.30;;;10.47;;
8584;SDS011;7180;52.742;11.420;2023-12-28T11:02:09;11.00;;;10.20;;
8584;SDS011;7180;52.742;11.420;2023-12-28T11:04:40;10.30;;;9.60;;
8584;SDS011;7180;52.742;11.420;2023-12-28T11:07:08;10.97;;;10.17;;
8584;SDS011;7180;52.742;11.420;2023-12-28T11:09:34;9.77;;;9.20;;
8584;SDS011;7180;52.742;11.420;2023-12-28T11:12:01;10.83;;;10.13;;
8584;SDS011;7180;52.742;11.420;2023-12-28T11:14:29;11.83;;;10.93;;
8584;SDS011;7180;52.742;11.420;2023-12-28T11:16:56;11.00;;;9.97;;
8584;SDS011;7180;52.742;11.420;2023-12-28T11:19:24;10.13;;;9.23;;
8584;SDS011;7180;52.742;11.420;2023-12-28T11:21:50;11.00;;;10.00;;
8584;SDS011;7180;52.742;11.420;2023-12-28T11:24:16;10.80;;;10.00;;
8584;SDS011;7180;52.742;11.420;2023-12-28T11:26:42;11.10;;;10.37;;
8584;SDS011;7180;52.742;11.420;2023-12-28T11:29:07;10.43;;;9.73;;
8584;SDS011;7180;52.742;11.420;2023-12-28T11:31:33;10.10;;;9.50;;
8584;SDS011;7180;52.742;11.420;2023-12-28T11:34:00;23.93;;;16.77;;
8584;SDS011;7180;52.742;11.420;2023-12-28T11:36:26;28.73;;;19.27;;
8584;SDS011;7180;52.742;11.420;2023-12-28T11:39:03;13.20;;;12.03;;
8584;SDS011;7180;52.742;11.420;2023-12-28T11:41:31;12.77;;;11.53;;
8584;SDS011;7180;52.742;11.420;2023-12-28T11:44:01;11.10;;;10.20;;
8584;SDS011;7180;52.742;11.420;2023-12-28T11:46:29;11.57;;;10.70;;
8584;SDS011;7180;52.742;11.420;2023-12-28T11:49:02;15.53;;;14.23;;
8584;SDS011;7180;52.742;11.420;2023-12-28T11:51:29;14.37;;;13.17;;
8584;SDS011;7180;52.742;11.420;2023-12-28T11:53:54;11.73;;;10.83;;
8584;SDS011;7180;52.742;11.420;2023-12-28T11:56:20;10.40;;;9.80;;
8584;SDS011;7180;52.742;11.420;2023-12-28T11:58:46;10.37;;;9.63;;
8584;SDS011;7180;52.742;11.420;2023-12-28T12:01:12;10.47;;;9.70;;
8584;SDS011;7180;52.742;11.420;2023-12-28T12:03:38;11.50;;;10.60;;
8584;SDS011;7180;52.742;11.420;2023-12-28T12:06:03;14.63;;;13.20;;
8584;SDS011;7180;52.742;11.420;2023-12-28T12:08:29;12.37;;;11.33;;
8584;SDS011;7180;52.742;11.420;2023-12-28T12:11:07;11.43;;;10.50;;
8584;SDS011;7180;52.742;11.420;2023-12-28T12:13:32;12.80;;;11.70;;
8584;SDS011;7180;52.742;11.420;2023-12-28T12:15:58;10.97;;;10.07;;
8584;SDS011;7180;52.742;11.420;2023-12-28T12:18:24;10.73;;;9.93;;
8584;SDS011;7180;52.742;11.420;2023-12-28T12:20:50;11.30;;;10.30;;
8584;SDS011;7180;52.742;11.420;2023-12-28T12:23:15;11.27;;;10.30;;
8584;SDS011;7180;52.742;11.420;2023-12-28T12:25:41;15.27;;;12.93;;
8584;SDS011;7180;52.742;11.420;2023-12-28T12:28:07;11.03;;;10.20;;
8584;SDS011;7180;52.742;11.420;2023-12-28T12:30:33;12.50;;;11.40;;
8584;SDS011;7180;52.742;11.420;2023-12-28T12:32:59;10.60;;;9.87;;
8584;SDS011;7180;52.742;11.420;2023-12-28T12:35:25;10.87;;;10.07;;
8584;SDS011;7180;52.742;11.420;2023-12-28T12:37:50;10.30;;;9.50;;
8584;SDS011;7180;52.742;11.420;2023-12-28T12:40:16;9.97;;;9.27;;
8584;SDS011;7180;52.742;11.420;2023-12-28T12:42:51;10.13;;;9.53;;
8584;SDS011;7180;52.742;11.420;2023-12-28T12:45:18;10.53;;;9.63;;
8584;SDS011;7180;52.742;11.420;2023-12-28T12:47:43;10.00;;;9.20;;
8584;SDS011;7180;52.742;11.420;2023-12-28T12:50:09;11.00;;;10.10;;
8584;SDS011;7180;52.742;11.420;2023-12-28T12:52:35;9.37;;;8.57;;
8584;SDS011;7180;52.742;11.420;2023-12-28T12:55:01;10.20;;;9.40;;
8584;SDS011;7180;52.742;11.420;2023-12-28T12:57:26;10.33;;;9.60;;
8584;SDS011;7180;52.742;11.420;2023-12-28T12:59:52;10.50;;;9.60;;
8584;SDS011;7180;52.742;11.420;2023-12-28T13:02:17;10.57;;;9.80;;
8584;SDS011;7180;52.742;11.420;2023-12-28T13:04:43;10.00;;;9.10;;
8584;SDS011;7180;52.742;11.420;2023-12-28T13:07:09;10.17;;;9.37;;
8584;SDS011;7180;52.742;11.420;2023-12-28T13:09:34;10.50;;;9.60;;
8584;SDS011;7180;52.742;11.420;2023-12-28T13:12:00;10.00;;;9.27;;
8584;SDS011;7180;52.742;11.420;2023-12-28T13:14:26;12.87;;;11.67;;
8584;SDS011;7180;52.742;11.420;2023-12-28T13:16:52;13.47;;;12.33;;
8584;SDS011;7180;52.742;11.420;2023-12-28T13:19:19;13.10;;;11.80;;
8584;SDS011;7180;52.742;11.420;2023-12-28T13:21:45;10.43;;;9.67;;
8584;SDS011;7180;52.742;11.420;2023-12-28T13:24:10;10.63;;;9.70;;
8584;SDS011;7180;52.742;11.420;2023-12-28T13:26:35;10.83;;;9.93;;
8584;SDS011;7180;52.742;11.420;2023-12-28T13:29:00;10.10;;;9.30;;
8584;SDS011;7180;52.742;11.420;2023-12-28T13:31:26;9.70;;;9.00;;
8584;SDS011;7180;52.742;11.420;2023-12-28T13:33:51;10.57;;;9.87;;
8584;SDS011;7180;52.742;11.420;2023-12-28T13:36:16;10.13;;;9.43;;
8584;SDS011;7180;52.742;11.420;2023-12-28T13:38:43;10.20;;;9.20;;
8584;SDS011;7180;52.742;11.420;2023-12-28T13:41:09;9.93;;;9.03;;
8584;SDS011;7180;52.742;11.420;2023-12-28T13:43:34;10.40;;;9.57;;
8584;SDS011;7180;52.742;11.420;2023-12-28T13:45:59;14.10;;;12.90;;
8584;SDS011;7180;52.742;11.420;2023-12-28T13:48:24;13.33;;;12.13;;
8584;SDS011;7180;52.742;11.420;2023-12-28T13:50:50;11.13;;;10.23;;
8584;SDS011;7180;52.742;11.420;2023-12-28T13:53:16;12.17;;;11.30;;
8584;SDS011;7180;52.742;11.420;2023-12-28T13:55:41;13.33;;;12.07;;
8584;SDS011;7180;52.742;11.420;2023-12-28T13:58:07;11.53;;;10.63;;
8584;SDS011;7180;52.742;11.420;2023-12-28T14:00:32;13.83;;;12.43;;
8584;SDS011;7180;52.742;11.420;2023-12-28T14:02:57;13.73;;;10.50;;
8584;SDS011;7180;52.742;11.420;2023-12-28T14:05:24;10.27;;;9.40;;
8584;SDS011;7180;52.742;11.420;2023-12-28T14:07:49;10.23;;;9.27;;
8584;SDS011;7180;52.742;11.420;2023-12-28T14:10:15;10.20;;;9.23;;
8584;SDS011;7180;52.742;11.420;2023-12-28T14:12:40;10.30;;;9.50;;
8584;SDS011;7180;52.742;11.420;2023-12-28T14:15:05;10.20;;;9.40;;
8584;SDS011;7180;52.742;11.420;2023-12-28T14:17:32;9.73;;;9.07;;
8584;SDS011;7180;52.742;11.420;2023-12-28T14:19:57;10.03;;;9.23;;
8584;SDS011;7180;52.742;11.420;2023-12-28T14:22:23;10.70;;;9.80;;
8584;SDS011;7180;52.742;11.420;2023-12-28T14:24:48;10.47;;;9.77;;
8584;SDS011;7180;52.742;11.420;2023-12-28T14:27:14;12.33;;;11.10;;
8584;SDS011;7180;52.742;11.420;2023-12-28T14:29:39;21.13;;;15.33;;
8584;SDS011;7180;52.742;11.420;2023-12-28T14:34:34;14.10;;;13.00;;
8584;SDS011;7180;52.742;11.420;2023-12-28T14:36:59;12.60;;;11.40;;
8584;SDS011;7180;52.742;11.420;2023-12-28T14:39:25;10.80;;;9.90;;
8584;SDS011;7180;52.742;11.420;2023-12-28T14:41:50;11.00;;;10.20;;
8584;SDS011;7180;52.742;11.420;2023-12-28T14:44:15;10.60;;;9.80;;
8584;SDS011;7180;52.742;11.420;2023-12-28T14:46:41;11.00;;;10.10;;
8584;SDS011;7180;52.742;11.420;2023-12-28T14:49:06;11.10;;;10.20;;
8584;SDS011;7180;52.742;11.420;2023-12-28T14:51:31;11.17;;;10.17;;